Terminal Aerodrome Forecast
Issued by NWS Charleston, WV

Home | Current Version | Previous Version | Text Only | Print | Product List | Glossary On
Versions: 1 2 3 4 5 6 7 8 9 10 11 12 13 14 15 16 17 18 19 20 21 22
000
FTUS41 KRLX 201700
TAFPKB
TAF
KPKB 201731Z 2018/2118 21005KT P6SM BKN040
     FM202300 18006KT P6SM SCT200
     FM210300 20004KT P6SM FEW040
     FM210800 19002KT 4SM BR SCT030
     FM210900 19003KT 6SM BR BKN025
     FM211400 22008KT P6SM VCTS BKN025CB
     FM211700 24010KT P6SM BKN025=

USA.gov is the U.S. government's official web portal to all federal, state and local government web resources and services.